Henderson, NC

9:11 AM EDT on September 25, 2016 (GMT -0400)
Rolling Acres | | Change Station

Elev 407 ft 36.02 °N, 78.51 °W | Updated 1 minute ago

Overcast
Overcast
68.5 °F
Feels Like 68.5 °F
N
3.8
Wind Variable Wind from NW
Gusts 4.5 mph

Today
High -- | Low -- °F
--% Chance of Precip.
Yesterday
High -- | Low -- °F
Precip. -- in
Pressure 30.17 in
Visibility 7.0 miles
Clouds Scattered Clouds 700 ft
Overcast 1100 ft
Dew Point 66.5 °F
Humidity 93%
Rainfall 0.00 in
Snow Depth Not available.
7:04 AM 7:05 PM
Waning Crescent, 28% visible
METAR KHNZ 251245Z AUTO 06006KT 7SM SCT007 OVC011 18/17 A3017 RMK AO2 T01830173
Pressure 30.17 in
Visibility 7.0 miles
Clouds Scattered Clouds 700 ft
Overcast 1100 ft
Dew Point 66.5 °F
Humidity 93%
Rainfall 0.00 in
Snow Depth Not available.
7:04 AM 7:05 PM
Waning Crescent, 28% visible
METAR KHNZ 251245Z AUTO 06006KT 7SM SCT007 OVC011 18/17 A3017 RMK AO2 T01830173

10-Day Weather Forecast

Almanac

Astronomy

Sep. 25, 2016 Rise Set
Actual Time
Civil Twilight
Nautical Twilight
Astronomical Twilight
Moon
Length of Visible Light
Length of Day
Tomorrow will be .
, % of the Moon is Illuminated

Today's Extremes

State Highs State Lows

Community

WunderPhotos

Upload Photos

1,941,590 photos uploaded!

WunderBlog® & News

Nearby

Air Quality

  Air Quality AQ Index Pollutant
Not available.

Snow Depth

Station Depth Elevation

Earthquake Activity

City Distance Mag. Time & Date
Minimum magnitude displayed is 2.5.

Coastal Water Temperatures

Place Temperature

Stations

Nearby Weather Stations

Station Location Temp. Windchill Dew Point Humidity Wind Precip. Elev Updated Type
                   

Watches & Warnings

There are currently no watches in effect.